Time;durP1;ratioP1;P1;durP2;ratioP2;P2;SDS_P1;SDS_P2;PMS_P1;PMS_P2;Temp;Humidity;BMP_temperature;BMP_pressure;BME280_temperature;BME280_humidity;BME280_pressure;Samples;Min_cycle;Max_cycle;Signal;HPM_P1;HPM_P2
2022/04/09 00:00:14;;;;;;;29.50;2.40;;;;;;;19.88;50.23;97378.09;7312950;19;129437;-39
2022/04/09 00:02:39;;;;;;;17.48;1.48;;;;;;;19.89;51.05;97385.75;7316301;19;129050;-41
2022/04/09 00:05:05;;;;;;;23.67;1.98;;;;;;;19.90;50.54;97397.00;7315260;19;129404;-38
2022/04/09 00:07:30;;;;;;;10.02;1.13;;;;;;;19.79;50.65;97381.78;7312782;19;129651;-35
2022/04/09 00:09:56;;;;;;;17.08;1.42;;;;;;;19.92;50.72;97415.84;7316489;19;129559;-39
2022/04/09 00:12:21;;;;;;;11.63;1.17;;;;;;;19.79;51.59;97395.63;7313444;19;154614;-39
2022/04/09 00:14:46;;;;;;;14.88;1.23;;;;;;;19.63;49.06;97421.09;7313059;19;158552;-38
2022/04/09 00:17:11;;;;;;;20.45;1.88;;;;;;;19.56;48.38;97420.19;7312905;19;158671;-40
2022/04/09 00:19:37;;;;;;;30.00;2.95;;;;;;;19.53;48.77;97425.75;7315646;19;130183;-40
2022/04/09 00:22:03;;;;;;;21.95;2.15;;;;;;;19.48;48.29;97422.88;7309312;19;130020;-38
2022/04/09 00:24:29;;;;;;;23.67;2.13;;;;;;;19.57;48.12;97433.03;7310538;19;130280;-38
2022/04/09 00:26:54;;;;;;;14.85;1.30;;;;;;;19.58;48.29;97432.06;7314473;19;129382;-41
2022/04/09 00:29:19;;;;;;;10.30;0.85;;;;;;;19.59;48.41;97427.63;7314618;19;129044;-40
2022/04/09 00:31:45;;;;;;;27.52;2.28;;;;;;;19.61;47.43;97423.06;7312817;19;153868;-39
2022/04/09 00:34:10;;;;;;;26.17;2.43;;;;;;;19.64;47.90;97422.69;7309993;19;158497;-40
2022/04/09 00:36:35;;;;;;;38.30;3.73;;;;;;;19.62;47.50;97429.91;7311316;19;158606;-40
2022/04/09 00:39:00;;;;;;;22.95;2.03;;;;;;;19.65;47.33;97434.75;7312060;19;154567;-41
2022/04/09 00:41:26;;;;;;;21.15;1.80;;;;;;;19.63;47.19;97442.75;7312515;19;128936;-40
2022/04/09 00:43:51;;;;;;;20.40;1.83;;;;;;;19.57;47.97;97430.41;7309806;19;159477;-38
2022/04/09 00:46:16;;;;;;;18.60;1.63;;;;;;;19.74;47.61;97444.91;7314197;19;148959;-40
2022/04/09 00:48:43;;;;;;;27.77;2.77;;;;;;;19.89;48.04;97447.50;7310342;19;154623;-39
2022/04/09 00:51:08;;;;;;;17.90;1.67;;;;;;;19.82;48.82;97441.38;7313212;19;130812;-40
2022/04/09 00:53:35;;;;;;;31.85;2.63;;;;;;;19.86;49.52;97447.88;7310931;19;129093;-40
2022/04/09 00:56:20;;;;;;;51.35;5.30;;;;;;;19.75;49.79;97430.88;7306243;19;131388;-41
2022/04/09 00:58:55;;;;;;;31.60;2.65;;;;;;;19.90;51.21;97441.31;7311884;19;128962;-38
2022/04/09 01:01:22;;;;;;;16.42;1.45;;;;;;;19.90;50.36;97444.72;7312238;19;129219;-40
2022/04/09 01:03:50;;;;;;;3.95;0.52;;;;;;;19.90;50.60;97444.72;7311509;19;129816;-37
2022/04/09 01:06:16;;;;;;;18.55;1.75;;;;;;;19.90;51.15;97449.94;7310215;19;130373;-41
2022/04/09 01:08:41;;;;;;;11.82;1.02;;;;;;;19.89;50.74;97455.31;7315900;19;129031;-40
2022/04/09 01:11:06;;;;;;;15.77;1.30;;;;;;;19.88;51.29;97453.72;7310529;19;154205;-39
2022/04/09 01:13:32;;;;;;;31.40;3.00;;;;;;;19.84;50.33;97445.44;7309864;19;130139;-41
2022/04/09 01:15:57;;;;;;;19.05;1.92;;;;;;;19.57;48.37;97448.66;7312714;19;129675;-40
2022/04/09 01:18:23;;;;;;;36.53;3.55;;;;;;;19.53;48.63;97436.19;7311840;19;155098;-39
2022/04/09 01:20:48;;;;;;;20.15;2.00;;;;;;;19.43;48.75;97426.03;7313032;19;128920;-38
2022/04/09 01:23:13;;;;;;;16.08;1.38;;;;;;;19.55;48.46;97445.44;7310072;19;151346;-41
2022/04/09 01:25:40;;;;;;;12.17;0.97;;;;;;;19.50;48.23;97446.97;7311148;19;158931;-39
2022/04/09 01:28:06;;;;;;;10.73;0.93;;;;;;;19.52;47.72;97455.41;7314066;19;128900;-41
2022/04/09 01:30:31;;;;;;;24.48;2.25;;;;;;;19.62;47.64;97476.81;7314296;19;130120;-40
2022/04/09 01:32:57;;;;;;;15.50;1.30;;;;;;;19.56;47.97;97474.91;7308180;19;158743;-39
2022/04/09 01:35:22;;;;;;;30.08;2.83;;;;;;;19.60;47.82;97482.22;7314518;19;130371;-38
2022/04/09 01:37:48;;;;;;;16.30;1.60;;;;;;;19.63;47.58;97484.47;7311730;19;154353;-40
2022/04/09 01:40:13;;;;;;;19.90;1.75;;;;;;;19.65;47.75;97492.88;7313763;19;128828;-39
2022/04/09 01:42:39;;;;;;;18.70;1.77;;;;;;;19.67;47.72;97497.94;7313468;19;130113;-38
2022/04/09 01:45:06;;;;;;;24.67;2.35;;;;;;;19.90;47.61;97493.47;7313741;19;130944;-39
2022/04/09 01:47:32;;;;;;;20.05;1.60;;;;;;;19.84;48.50;97504.59;7311817;19;129389;-41
2022/04/09 01:49:57;;;;;;;15.55;1.77;;;;;;;19.83;49.25;97505.59;7312044;19;129126;-38
2022/04/09 01:52:22;;;;;;;14.20;1.23;;;;;;;19.83;49.21;97511.63;7313171;19;130374;-40
2022/04/09 01:54:48;;;;;;;16.40;1.50;;;;;;;19.84;49.78;97518.47;7310073;19;158418;-40
2022/04/09 01:57:15;;;;;;;15.80;1.57;;;;;;;19.85;50.43;97519.28;7310200;19;154497;-36
2022/04/09 01:59:43;;;;;;;30.00;2.92;;;;;;;19.88;50.92;97524.13;7312605;19;128762;-39
2022/04/09 02:02:08;;;;;;;5.70;0.63;;;;;;;19.87;51.31;97522.50;7309198;19;130251;-41
2022/04/09 02:04:34;;;;;;;24.73;2.17;;;;;;;19.90;50.21;97524.75;7309105;19;130725;-40
2022/04/09 02:06:59;;;;;;;13.63;1.20;;;;;;;19.88;50.86;97527.56;7310914;19;153390;-41
2022/04/09 02:09:25;;;;;;;38.08;3.55;;;;;;;19.88;50.71;97534.56;7310448;19;129000;-40
2022/04/09 02:11:50;;;;;;;18.98;1.70;;;;;;;19.90;51.32;97537.81;7308149;19;130193;-39
2022/04/09 02:14:16;;;;;;;35.80;3.35;;;;;;;19.57;49.09;97539.88;7306714;19;158428;-40
2022/04/09 02:16:41;;;;;;;25.42;2.05;;;;;;;19.53;48.59;97543.03;7310882;19;129351;-40
2022/04/09 02:19:08;;;;;;;17.17;1.60;;;;;;;19.55;48.24;97538.47;7311242;19;130635;-39
2022/04/09 02:21:34;;;;;;;25.85;2.55;;;;;;;19.57;48.02;97559.94;7306603;19;130681;-39
2022/04/09 02:23:59;;;;;;;14.55;1.33;;;;;;;19.57;48.26;97562.56;7309471;19;129296;-40
2022/04/09 02:26:25;;;;;;;39.85;3.72;;;;;;;19.61;48.33;97542.94;7308889;19;131466;-40
2022/04/09 02:28:50;;;;;;;20.13;1.83;;;;;;;19.59;47.68;97550.13;7310103;19;149816;-40
2022/04/09 02:31:17;;;;;;;0.47;0.20;;;;;;;19.62;47.86;97552.41;7309203;19;130137;-37
2022/04/09 02:33:44;;;;;;;13.95;1.20;;;;;;;19.61;47.99;97559.41;7310275;19;130948;-39
2022/04/09 02:36:11;;;;;;;17.13;1.50;;;;;;;19.63;47.68;97570.47;7309552;19;129372;-40
2022/04/09 02:38:37;;;;;;;17.73;1.60;;;;;;;19.65;48.13;97573.69;7311002;19;130643;-40
2022/04/09 02:41:02;;;;;;;30.10;2.67;;;;;;;19.66;48.12;97580.53;7307443;19;130761;-40
2022/04/09 02:43:27;;;;;;;41.17;3.93;;;;;;;19.68;48.11;97568.16;7307295;19;158734;-39
2022/04/09 02:45:52;;;;;;;12.60;1.00;;;;;;;19.89;48.17;97596.16;7313489;19;154715;-38
2022/04/09 02:48:18;;;;;;;12.82;1.27;;;;;;;19.81;49.56;97599.66;7316451;19;152950;-40
2022/04/09 02:50:43;;;;;;;17.90;1.52;;;;;;;19.82;49.80;97610.88;7313077;19;132402;-39
2022/04/09 02:53:11;;;;;;;23.00;2.05;;;;;;;19.85;50.27;97607.94;7315301;19;158287;-39
2022/04/09 02:55:36;;;;;;;73.95;7.22;;;;;;;19.78;50.20;97613.03;7309500;19;140493;-39
2022/04/09 02:58:02;;;;;;;21.15;2.05;;;;;;;19.88;50.86;97641.47;7302859;19;154578;-41
2022/04/09 03:00:27;;;;;;;32.47;3.17;;;;;;;19.81;50.97;97627.50;7315785;19;130625;-36
2022/04/09 03:02:52;;;;;;;15.20;1.33;;;;;;;19.90;51.15;97649.94;7314228;19;158474;-40
2022/04/09 03:05:18;;;;;;;29.38;2.88;;;;;;;19.89;51.33;97656.94;7315271;19;154592;-38
2022/04/09 03:07:43;;;;;;;14.38;1.23;;;;;;;19.87;51.10;97648.47;7316072;19;129584;-41
2022/04/09 03:10:09;;;;;;;19.47;1.90;;;;;;;19.88;50.98;97654.50;7315239;19;158334;-41
2022/04/09 03:12:35;;;;;;;3.67;0.60;;;;;;;19.62;48.61;97654.06;7313062;19;130950;-40
2022/04/09 03:15:00;;;;;;;34.15;3.22;;;;;;;19.55;48.65;97664.38;7315887;19;128829;-40
2022/04/09 03:17:25;;;;;;;20.58;1.75;;;;;;;19.55;48.46;97664.38;7312351;19;146391;-41
2022/04/09 03:19:50;;;;;;;11.82;1.00;;;;;;;19.56;48.15;97665.16;7317584;19;129439;-41
2022/04/09 03:22:16;;;;;;;20.42;1.88;;;;;;;19.59;47.92;97675.25;7310968;19;158371;-41
2022/04/09 03:24:41;;;;;;;3.97;0.50;;;;;;;19.60;48.14;97679.50;7314988;19;154566;-41
2022/04/09 03:27:06;;;;;;;17.43;1.47;;;;;;;19.63;47.43;97686.97;7311611;19;153155;-39
2022/04/09 03:29:31;;;;;;;15.63;1.53;;;;;;;19.56;47.59;97689.44;7314241;19;158572;-40
2022/04/09 03:31:58;;;;;;;17.15;1.48;;;;;;;19.62;47.43;97700.97;7314435;19;131909;-39
2022/04/09 03:34:23;;;;;;;19.02;1.65;;;;;;;19.52;47.76;97689.97;7313855;19;129661;-39
2022/04/09 03:36:48;;;;;;;67.47;6.37;;;;;;;19.65;47.32;97708.47;7311887;19;154229;-39
2022/04/09 03:39:14;;;;;;;25.17;2.13;;;;;;;19.66;47.84;97707.47;7311566;19;158436;-35
2022/04/09 03:41:39;;;;;;;22.95;1.98;;;;;;;19.67;47.91;97715.09;7313342;19;132616;-38
2022/04/09 03:44:05;;;;;;;22.65;2.10;;;;;;;19.84;47.65;97705.38;7310110;19;158183;-40
2022/04/09 03:46:30;;;;;;;17.90;1.42;;;;;;;19.85;49.28;97727.88;7316075;19;129395;-39
2022/04/09 03:48:56;;;;;;;17.30;1.58;;;;;;;19.84;49.21;97736.66;7313591;19;130407;-39
2022/04/09 03:51:21;;;;;;;20.15;1.85;;;;;;;19.81;49.91;97734.41;7316558;19;131080;-40
2022/04/09 03:53:46;;;;;;;18.07;1.47;;;;;;;19.84;50.46;97747.09;7311281;19;154682;-41
2022/04/09 03:56:11;;;;;;;17.40;1.80;;;;;;;19.86;50.14;97745.94;7314294;19;154296;-40
2022/04/09 03:58:37;;;;;;;24.75;2.35;;;;;;;19.88;50.79;97757.03;7312675;19;157255;-38
2022/04/09 04:01:03;;;;;;;18.77;1.73;;;;;;;19.90;51.04;97765.47;7315740;19;129281;-41
2022/04/09 04:03:28;;;;;;;28.60;2.85;;;;;;;19.92;51.02;97765.28;7312273;19;129987;-40
2022/04/09 04:05:54;;;;;;;16.38;1.52;;;;;;;19.90;51.25;97777.72;7315200;19;129075;-41
2022/04/09 04:08:19;;;;;;;25.45;2.35;;;;;;;19.89;51.61;97786.50;7316436;19;130366;-41
2022/04/09 04:10:44;;;;;;;4.72;0.47;;;;;;;19.77;50.53;97793.91;7311851;19;137746;-41
2022/04/09 04:13:11;;;;;;;35.23;3.57;;;;;;;19.54;49.29;97797.44;7313084;19;152884;-39
2022/04/09 04:15:37;;;;;;;15.23;1.45;;;;;;;19.54;48.28;97805.25;7314363;19;129096;-40
2022/04/09 04:18:03;;;;;;;16.75;1.42;;;;;;;19.52;48.32;97821.06;7315308;19;131151;-35
2022/04/09 04:20:28;;;;;;;20.40;1.75;;;;;;;19.48;48.10;97810.16;7316076;19;130458;-39
2022/04/09 04:22:54;;;;;;;28.08;2.47;;;;;;;19.59;48.53;97832.44;7309858;19;146458;-41
2022/04/09 04:25:20;;;;;;;27.00;2.45;;;;;;;19.58;48.31;97840.44;7313440;19;130277;-41
2022/04/09 04:27:47;;;;;;;13.60;1.40;;;;;;;19.53;48.29;97840.13;7313197;19;129717;-41
2022/04/09 04:30:13;;;;;;;18.10;1.63;;;;;;;19.58;47.69;97856.09;7313848;19;130427;-40
2022/04/09 04:32:40;;;;;;;23.85;2.22;;;;;;;19.52;48.06;97852.34;7312188;19;130695;-40
2022/04/09 04:35:05;;;;;;;21.95;1.83;;;;;;;19.65;47.93;97872.69;7314282;19;128979;-40
2022/04/09 04:37:41;;;;;;;21.50;1.92;;;;;;;19.64;47.88;97884.91;7311978;19;129838;-39
2022/04/09 04:40:07;;;;;;;25.60;2.45;;;;;;;19.67;47.73;97888.97;7313955;19;130388;-40
2022/04/09 04:42:33;;;;;;;22.58;2.10;;;;;;;19.65;47.71;97893.53;7312579;19;129241;-38
2022/04/09 04:44:58;;;;;;;20.17;1.83;;;;;;;19.65;47.47;97898.75;7310543;19;130505;-40
2022/04/09 04:47:23;;;;;;;28.10;2.47;;;;;;;19.68;47.37;97899.22;7311001;19;157306;-41
2022/04/09 04:49:49;;;;;;;17.13;1.43;;;;;;;19.91;47.78;97913.16;7310861;19;158609;-39
2022/04/09 04:52:14;;;;;;;57.23;5.63;;;;;;;19.83;48.77;97912.38;7309398;19;155387;-38
2022/04/09 04:54:39;;;;;;;18.85;1.75;;;;;;;19.76;49.03;97907.03;7307150;19;154281;-38
2022/04/09 04:57:04;;;;;;;64.00;6.83;;;;;;;19.82;49.55;97924.59;7307937;19;159138;-39
2022/04/09 04:59:30;;;;;;;27.37;2.77;;;;;;;19.80;50.24;97920.53;7298231;19;158760;-38
2022/04/09 05:01:55;;;;;;;11.50;1.10;;;;;;;19.86;50.97;97938.09;7309967;19;154404;-38
2022/04/09 05:04:20;;;;;;;16.63;1.50;;;;;;;19.87;49.93;97944.94;7309606;19;154359;-40
2022/04/09 05:06:45;;;;;;;16.98;1.58;;;;;;;19.91;50.96;97952.28;7309767;19;130107;-40
2022/04/09 05:09:13;;;;;;;22.67;2.15;;;;;;;19.89;50.65;97964.66;7312990;19;129232;-40
2022/04/09 05:11:39;;;;;;;26.27;2.60;;;;;;;19.82;50.79;97962.88;7313781;19;129716;-40
2022/04/09 05:14:04;;;;;;;14.02;1.60;;;;;;;19.88;51.48;97972.66;7311294;19;128777;-38
2022/04/09 05:16:29;;;;;;;21.38;2.13;;;;;;;19.64;48.56;97980.53;7313334;19;130716;-38
2022/04/09 05:18:55;;;;;;;13.77;1.20;;;;;;;19.57;48.65;97982.19;7313072;19;159091;-40
2022/04/09 05:21:20;;;;;;;66.63;6.25;;;;;;;19.44;48.54;97969.66;7310326;19;129243;-39
2022/04/09 05:23:45;;;;;;;16.45;1.48;;;;;;;19.57;48.32;97995.22;7304606;19;154723;-40
2022/04/09 05:26:10;;;;;;;15.10;1.33;;;;;;;19.56;48.12;98004.81;7311499;19;158211;-40
2022/04/09 05:28:36;;;;;;;6.85;0.68;;;;;;;19.56;48.15;98009.22;7312249;19;129468;-38
2022/04/09 05:31:02;;;;;;;18.77;1.65;;;;;;;19.57;47.73;98016.06;7313945;19;128895;-39
2022/04/09 05:33:28;;;;;;;22.27;1.90;;;;;;;19.62;47.69;98016.41;7311724;19;129196;-41
2022/04/09 05:35:54;;;;;;;2.17;0.28;;;;;;;19.58;47.77;98021.13;7313594;19;136431;-37
2022/04/09 05:38:20;;;;;;;26.67;2.33;;;;;;;19.60;47.51;98031.38;7314023;19;130345;-38
2022/04/09 05:40:45;;;;;;;12.25;1.05;;;;;;;19.63;47.83;98033.66;7312549;19;133554;-40
2022/04/09 05:43:11;;;;;;;15.80;1.40;;;;;;;19.67;47.17;98040.19;7309751;19;151752;-37
2022/04/09 05:45:37;;;;;;;13.60;1.10;;;;;;;19.66;47.41;98046.34;7313272;19;130237;-39
2022/04/09 05:48:03;;;;;;;9.10;1.45;;;;;;;19.64;47.25;98053.53;7310705;19;130965;-72
2022/04/09 05:50:29;;;;;;;9.85;1.40;;;;;;;19.90;47.97;98054.94;7310062;19;129150;-71
2022/04/09 05:52:55;;;;;;;9.40;1.35;;;;;;;19.83;48.19;98055.78;7312278;19;128966;-75
2022/04/09 05:55:21;;;;;;;18.95;3.00;;;;;;;19.82;49.00;98062.78;7315177;19;129738;-74
2022/04/09 05:57:46;;;;;;;15.52;2.20;;;;;;;19.82;49.73;98073.22;7311775;19;129992;-75
2022/04/09 06:00:13;;;;;;;11.43;1.80;;;;;;;19.85;50.40;98072.09;7311671;19;155875;-74
2022/04/09 06:02:39;;;;;;;;;;;;;;;19.89;50.72;98083.81;7312496;19;129095;-74
2022/04/09 06:05:06;;;;;;;5.28;1.00;;;;;;;19.87;50.19;98080.53;7312479;19;132112;-71
2022/04/09 06:07:31;;;;;;;6.35;1.25;;;;;;;19.89;50.27;98086.41;7325209;19;129684;-73
2022/04/09 06:09:57;;;;;;;6.55;0.90;;;;;;;19.89;50.18;98089.03;7316668;19;130492;-72
2022/04/09 06:12:22;;;;;;;9.77;1.37;;;;;;;19.88;51.18;98092.63;7314482;19;130023;-73
2022/04/09 06:14:48;;;;;;;11.20;1.38;;;;;;;19.86;50.39;98107.63;7311899;19;129932;-71
2022/04/09 06:17:14;;;;;;;14.70;2.38;;;;;;;19.85;51.38;98103.38;7309353;19;133133;-71
2022/04/09 06:19:39;;;;;;;35.03;5.45;;;;;;;19.54;48.95;98099.78;7314055;19;145325;-70
2022/04/09 06:22:04;;;;;;;11.95;1.77;;;;;;;19.50;48.30;98109.75;7317141;19;131750;-70
2022/04/09 06:24:35;;;;;;;10.90;1.40;;;;;;;19.52;48.50;98112.19;7316389;19;158990;-69
2022/04/09 06:27:01;;;;;;;9.23;1.30;;;;;;;19.53;47.94;98119.03;7315922;19;129715;-73
2022/04/09 06:29:26;;;;;;;10.23;1.38;;;;;;;19.57;47.71;98125.56;7320062;19;154308;-72
2022/04/09 06:31:51;;;;;;;20.87;1.70;;;;;;;19.59;48.20;98131.41;7312070;19;154684;-39
2022/04/09 06:34:17;;;;;;;13.45;1.23;;;;;;;19.59;47.98;98129.63;7318475;19;130769;-40
2022/04/09 06:36:43;;;;;;;18.33;1.70;;;;;;;19.58;47.80;98135.00;7312284;19;130804;-39
2022/04/09 06:39:08;;;;;;;25.63;2.40;;;;;;;19.60;47.34;98141.69;7317344;19;129443;-38
2022/04/09 06:41:35;;;;;;;25.20;2.08;;;;;;;19.64;48.08;98149.97;7315245;19;129414;-38
2022/04/09 06:44:00;;;;;;;23.90;2.00;;;;;;;19.66;47.26;98145.41;7315707;19;130033;-40
2022/04/09 06:46:26;;;;;;;13.43;1.55;;;;;;;19.65;47.79;98159.44;7314432;19;131113;-40
2022/04/09 06:48:51;;;;;;;27.88;2.45;;;;;;;19.90;47.77;98164.50;7316290;19;128957;-39
2022/04/09 06:51:17;;;;;;;20.63;1.98;;;;;;;19.83;48.29;98175.75;7316214;19;129309;-38
2022/04/09 06:53:42;;;;;;;20.52;1.85;;;;;;;19.80;48.21;98173.47;7316269;19;133844;-38
2022/04/09 06:56:07;;;;;;;35.45;3.13;;;;;;;19.83;49.32;98180.97;7313417;19;154532;-39
2022/04/09 06:58:34;;;;;;;19.67;1.75;;;;;;;19.84;49.96;98193.00;7315026;19;129461;-40
2022/04/09 07:01:02;;;;;;;18.38;1.73;;;;;;;19.85;50.34;98189.44;7315949;19;129688;-39
2022/04/09 07:03:28;;;;;;;17.63;1.38;;;;;;;19.87;50.50;98203.13;7315726;19;130261;-39
2022/04/09 07:05:53;;;;;;;25.23;2.42;;;;;;;19.86;50.92;98206.72;7313857;19;130461;-40
2022/04/09 07:08:20;;;;;;;31.15;3.03;;;;;;;19.89;50.54;98214.22;7311621;19;130036;-38
2022/04/09 07:10:45;;;;;;;19.57;1.97;;;;;;;19.85;51.63;98205.09;7315917;19;129337;-39
2022/04/09 07:13:10;;;;;;;21.10;2.00;;;;;;;19.88;50.80;98215.19;7314270;19;145477;-40
2022/04/09 07:15:36;;;;;;;38.50;3.55;;;;;;;19.85;50.21;98216.31;7315030;19;129305;-40
2022/04/09 07:18:01;;;;;;;20.07;1.77;;;;;;;19.45;48.98;98206.66;7312503;19;154503;-39
2022/04/09 07:20:27;;;;;;;56.70;4.80;;;;;;;19.51;49.11;98220.03;7312136;19;129358;-38
2022/04/09 07:22:52;;;;;;;33.60;3.22;;;;;;;19.51;48.79;98220.03;7311611;19;131550;-39
2022/04/09 07:25:17;;;;;;;17.15;1.48;;;;;;;19.50;48.18;98228.81;7312877;19;158457;-40
2022/04/09 07:27:45;;;;;;;19.42;2.15;;;;;;;19.57;47.88;98227.22;7311960;19;128921;-38
2022/04/09 07:30:13;;;;;;;24.45;2.28;;;;;;;19.59;47.72;98227.84;7313393;19;129167;-38
2022/04/09 07:32:38;;;;;;;27.77;2.67;;;;;;;19.56;47.56;98229.00;7312913;19;130177;-39
2022/04/09 07:35:04;;;;;;;34.40;3.17;;;;;;;19.63;47.60;98243.03;7313136;19;130970;-37
2022/04/09 07:37:30;;;;;;;37.43;3.43;;;;;;;19.59;48.13;98246.09;7312543;19;129881;-39
2022/04/09 07:39:55;;;;;;;25.70;2.28;;;;;;;19.59;47.70;98254.75;7313371;19;145086;-39
2022/04/09 07:42:21;;;;;;;23.52;2.03;;;;;;;19.62;48.04;98264.06;7310707;19;130586;-40
2022/04/09 07:44:47;;;;;;;17.67;1.48;;;;;;;19.64;47.80;98262.09;7314716;19;142136;-38
2022/04/09 07:47:13;;;;;;;27.20;2.67;;;;;;;19.64;47.71;98256.88;7312393;19;129062;-40
2022/04/09 07:49:38;;;;;;;23.17;2.15;;;;;;;19.90;47.90;98268.03;7314287;19;130927;-40
2022/04/09 07:52:04;;;;;;;16.67;1.83;;;;;;;19.73;48.35;98256.75;7312603;19;158248;-40
2022/04/09 07:54:30;;;;;;;15.82;1.50;;;;;;;19.79;50.05;98268.31;7313114;19;130863;-39
2022/04/09 07:56:56;;;;;;;27.23;2.40;;;;;;;19.79;49.99;98265.69;7310701;19;129510;-40
2022/04/09 07:59:21;;;;;;;10.07;1.17;;;;;;;19.81;50.64;98276.78;7314376;19;130272;-39
2022/04/09 08:01:46;;;;;;;23.20;1.93;;;;;;;19.82;50.71;98283.63;7310191;19;159111;-40
2022/04/09 08:04:12;;;;;;;21.43;2.33;;;;;;;19.84;51.28;98284.28;7311064;19;158501;-39
2022/04/09 08:06:37;;;;;;;30.98;2.92;;;;;;;19.86;50.50;98292.78;7310635;19;129720;-38
2022/04/09 08:09:02;;;;;;;28.13;2.75;;;;;;;19.86;50.54;98287.56;7312595;19;128873;-39
2022/04/09 08:11:28;;;;;;;40.80;3.77;;;;;;;19.86;51.40;98288.38;7311793;19;158632;-39
2022/04/09 08:13:54;;;;;;;10.18;1.05;;;;;;;19.84;51.26;98295.56;7313692;19;133008;-40
2022/04/09 08:16:19;;;;;;;18.95;1.58;;;;;;;19.60;48.61;98307.72;7310465;19;129593;-38
2022/04/09 08:18:45;;;;;;;26.17;2.45;;;;;;;19.44;48.93;98298.84;7312409;19;129411;-39
2022/04/09 08:21:10;;;;;;;20.15;1.75;;;;;;;19.52;49.04;98312.91;7310725;19;153470;-40
2022/04/09 08:23:35;;;;;;;46.80;3.95;;;;;;;19.45;48.03;98307.50;7308423;19;158701;-37
2022/04/09 08:26:01;;;;;;;19.98;1.92;;;;;;;19.53;48.10;98322.34;7310002;19;154744;-40
2022/04/09 08:28:30;;;;;;;19.30;1.73;;;;;;;19.53;47.67;98327.56;7312940;19;130540;-40
2022/04/09 08:30:55;;;;;;;21.48;2.03;;;;;;;19.60;47.73;98328.56;7307826;19;129483;-40
2022/04/09 08:33:21;;;;;;;15.52;1.58;;;;;;;19.60;47.68;98333.78;7311941;19;129905;-40
2022/04/09 08:35:47;;;;;;;24.08;2.00;;;;;;;19.54;47.96;98318.75;7312084;19;129114;-40
2022/04/09 08:38:13;;;;;;;13.33;1.40;;;;;;;19.62;47.52;98339.66;7309462;19;129194;-38
2022/04/09 08:40:38;;;;;;;41.60;3.92;;;;;;;19.64;48.02;98340.28;7312680;19;129026;-39
2022/04/09 08:43:05;;;;;;;37.15;3.47;;;;;;;19.62;47.82;98337.06;7307313;19;130278;-40
2022/04/09 08:45:34;;;;;;;19.85;1.83;;;;;;;19.78;48.02;98334.50;7313088;19;129787;-38
2022/04/09 08:48:00;;;;;;;13.80;1.48;;;;;;;19.83;48.43;98337.44;7309649;19;129494;-39
2022/04/09 08:50:27;;;;;;;13.38;1.05;;;;;;;19.68;49.62;98326.81;7309935;19;159372;-39
2022/04/09 08:52:54;;;;;;;16.33;1.45;;;;;;;19.79;49.42;98328.28;7311008;19;133782;-39
2022/04/09 08:55:20;;;;;;;57.95;5.10;;;;;;;19.80;50.08;98340.38;7308371;19;129827;-38
2022/04/09 08:57:46;;;;;;;8.80;1.00;;;;;;;19.81;50.72;98334.16;7311063;19;129243;-39
2022/04/09 09:00:17;;;;;;;19.65;1.80;;;;;;;19.83;51.35;98334.84;7312847;19;130783;-39
2022/04/09 09:03:10;;;;;;;31.42;3.05;;;;;;;19.87;51.42;98338.75;7310719;19;130441;-40
2022/04/09 09:05:45;;;;;;;38.70;3.28;;;;;;;19.85;50.99;98338.09;7311743;19;129141;-38
2022/04/09 09:08:11;;;;;;;18.55;1.80;;;;;;;19.84;50.61;98342.50;7310415;19;129266;-40
2022/04/09 09:10:37;;;;;;;34.13;3.30;;;;;;;19.87;50.84;98351.78;7312288;19;129220;-40
2022/04/09 09:13:05;;;;;;;22.38;1.98;;;;;;;19.84;51.45;98346.88;7311764;19;129560;-40
2022/04/09 09:15:52;;;;;;;27.35;2.47;;;;;;;19.58;48.77;98340.94;7313395;19;129026;-40
2022/04/09 09:18:28;;;;;;;26.40;2.43;;;;;;;19.50;48.10;98328.69;7308266;19;129554;-38
2022/04/09 09:20:55;;;;;;;23.30;2.22;;;;;;;19.47;48.05;98323.78;7310033;19;129515;-39
2022/04/09 09:23:31;;;;;;;14.70;1.35;;;;;;;19.51;48.05;98326.88;7309917;19;131119;-39
2022/04/09 09:25:58;;;;;;;32.53;2.90;;;;;;;19.62;48.01;98317.00;7309813;19;131163;-40
2022/04/09 09:28:28;;;;;;;18.00;1.55;;;;;;;19.74;48.17;98322.72;7311478;19;129071;-39
2022/04/09 09:30:54;;;;;;;15.05;1.73;;;;;;;19.74;47.91;98318.34;7310052;19;131127;-39
2022/04/09 09:33:20;;;;;;;23.92;2.40;;;;;;;19.81;47.37;98321.97;7312138;19;129406;-38
2022/04/09 09:35:47;;;;;;;28.40;2.67;;;;;;;19.87;47.63;98330.91;7310530;19;129130;-38
2022/04/09 09:38:27;;;;;;;26.00;2.75;;;;;;;19.89;47.17;98336.78;7300052;19;129635;-40
2022/04/09 09:40:54;;;;;;;17.55;1.75;;;;;;;19.94;47.28;98352.78;7309431;19;130435;-39
2022/04/09 09:43:21;;;;;;;30.08;2.67;;;;;;;19.97;47.59;98370.72;7307942;19;130300;-40
2022/04/09 09:45:48;;;;;;;48.63;4.15;;;;;;;19.99;47.20;98387.03;7308445;19;129207;-40
2022/04/09 09:48:33;;;;;;;30.52;2.85;;;;;;;20.01;46.89;98385.91;7306931;19;129061;-39
2022/04/09 09:50:59;;;;;;;21.55;2.03;;;;;;;20.03;47.51;98394.38;7310158;19;129257;-38
2022/04/09 09:53:36;;;;;;;31.57;2.73;;;;;;;20.17;48.78;98393.81;7311410;19;131474;-38
2022/04/09 09:56:03;;;;;;;26.75;2.72;;;;;;;20.24;48.04;98370.50;7317300;19;129975;-39
2022/04/09 09:58:29;;;;;;;24.15;2.03;;;;;;;20.07;49.08;98368.78;7317342;19;130267;-40
2022/04/09 10:00:58;;;;;;;12.60;1.40;;;;;;;20.19;48.75;98367.56;7317028;19;130822;-38
2022/04/09 10:03:25;;;;;;;108.85;10.73;;;;;;;20.17;48.77;98364.28;7299480;19;129809;-40
2022/04/09 10:05:51;;;;;;;105.90;9.75;;;;;;;20.18;49.32;98358.09;7284349;19;131471;-37
2022/04/09 10:08:18;;;;;;;44.67;4.03;;;;;;;20.28;49.00;98356.97;7269114;19;129737;-39
2022/04/09 10:10:48;;;;;;;28.92;3.08;;;;;;;20.27;49.21;98354.50;7315015;19;129154;-38
2022/04/09 10:13:18;;;;;;;54.55;4.70;;;;;;;20.23;49.75;98353.22;7311207;19;130971;-38
2022/04/09 10:15:47;;;;;;;54.85;5.25;;;;;;;20.26;49.86;98368.56;7314188;19;129243;-39
2022/04/09 10:18:12;;;;;;;30.70;2.83;;;;;;;20.26;49.50;98392.03;7311260;19;129973;-39
2022/04/09 10:20:39;;;;;;;28.55;3.15;;;;;;;20.12;50.12;98418.72;7316332;19;129563;-40
2022/04/09 10:23:09;;;;;;;31.70;2.75;;;;;;;20.00;48.49;98427.81;7314414;19;130145;-39
2022/04/09 10:25:39;;;;;;;24.42;2.60;;;;;;;20.00;48.25;98417.38;7313277;19;129604;-39
2022/04/09 10:28:06;;;;;;;63.95;6.30;;;;;;;20.05;47.99;98422.91;7313272;19;129477;-40
2022/04/09 10:30:41;;;;;;;34.70;3.45;;;;;;;20.09;47.42;98403.38;7312090;19;130038;-39
2022/04/09 10:33:36;;;;;;;26.00;2.67;;;;;;;20.15;47.54;98398.38;7313761;19;129181;-39
2022/04/09 10:36:02;;;;;;;34.53;3.08;;;;;;;20.23;47.22;98400.19;7312841;19;128956;-39
2022/04/09 10:38:28;;;;;;;36.75;3.28;;;;;;;20.23;47.22;98411.44;7315176;19;130732;-40
2022/04/09 10:40:55;;;;;;;21.63;2.07;;;;;;;20.25;47.29;98408.66;7315334;19;130261;-39
2022/04/09 10:43:26;;;;;;;21.60;1.98;;;;;;;20.36;47.82;98406.56;7312657;19;129504;-39
2022/04/09 10:46:00;;;;;;;17.45;1.85;;;;;;;20.50;48.30;98412.94;7315102;19;129049;-38
2022/04/09 10:48:35;;;;;;;25.02;2.45;;;;;;;20.50;49.05;98424.22;7312562;19;153891;-40
2022/04/09 10:51:08;;;;;;;35.30;3.38;;;;;;;20.49;48.52;98429.59;7313307;19;132410;-38
2022/04/09 10:53:52;;;;;;;42.15;4.50;;;;;;;20.45;49.17;98447.38;7314376;19;130394;-40
2022/04/09 10:56:31;;;;;;;20.17;2.05;;;;;;;20.43;49.42;98456.34;7313620;19;129019;-40
2022/04/09 10:59:16;;;;;;;12.43;1.27;;;;;;;20.37;49.83;98451.75;7314806;19;130530;-40
2022/04/09 11:01:50;;;;;;;22.38;2.45;;;;;;;20.39;49.33;98481.97;7315493;19;129310;-38
2022/04/09 11:04:37;;;;;;;31.10;2.97;;;;;;;20.38;50.29;98488.13;7313869;19;129553;-39
2022/04/09 11:07:08;;;;;;;23.25;2.30;;;;;;;20.34;49.82;98470.34;7311964;19;129256;-40
2022/04/09 11:09:56;;;;;;;39.65;3.80;;;;;;;20.15;50.09;98458.38;7311475;19;129561;-39
2022/04/09 11:12:30;;;;;;;;;;;;;;;19.96;48.71;98449.97;7310735;19;130194;-39
2022/04/09 11:15:00;;;;;;;28.48;2.70;;;;;;;19.99;48.55;98449.66;7314165;19;129972;-40
2022/04/09 11:17:28;;;;;;;26.40;2.42;;;;;;;20.03;47.94;98450.97;7311910;19;128917;-39